createdAt,value
2023-05-14T00:00:51.302Z,215596.00
2023-05-14T00:06:53.500Z,215560.00
2023-05-14T00:12:55.709Z,215532.00
2023-05-14T00:18:57.957Z,215477.00
2023-05-14T00:25:00.288Z,215469.00
2023-05-14T00:31:02.398Z,215489.00
2023-05-14T00:37:06.124Z,215469.00
2023-05-14T00:43:08.567Z,215427.00
2023-05-14T00:49:11.176Z,215383.00
2023-05-14T00:55:16.865Z,215349.00
2023-05-14T01:01:19.638Z,215289.00
2023-05-14T01:07:43.360Z,215273.00
2023-05-14T01:14:03.727Z,215261.00
2023-05-14T01:20:06.617Z,215217.00
2023-05-14T01:26:08.819Z,215217.00
2023-05-14T01:32:13.695Z,215132.00
2023-05-14T01:38:19.155Z,215052.00
2023-05-14T01:44:22.383Z,215002.00
2023-05-14T01:50:24.943Z,214940.00
2023-05-14T01:56:27.384Z,214905.00
2023-05-14T02:02:29.807Z,214905.00
2023-05-14T02:08:32.311Z,214919.00
2023-05-14T02:14:34.612Z,214905.00
2023-05-14T02:20:36.896Z,214869.00
2023-05-14T02:26:39.293Z,214841.00
2023-05-14T02:32:42.049Z,214793.00
2023-05-14T02:38:44.494Z,214703.00
2023-05-14T02:44:47.135Z,214584.00
2023-05-14T02:50:51.381Z,214523.00
2023-05-14T02:56:53.747Z,214502.00
2023-05-14T03:02:55.974Z,214488.00
2023-05-14T03:08:58.637Z,214515.00
2023-05-14T03:15:00.908Z,214606.00
2023-05-14T03:21:04.157Z,214681.00
2023-05-14T03:27:06.404Z,214779.00
2023-05-14T03:33:08.973Z,214897.00
2023-05-14T03:39:11.339Z,215002.00
2023-05-14T03:45:13.879Z,215072.00
2023-05-14T03:51:16.134Z,215182.00
2023-05-14T03:57:18.319Z,215182.00
2023-05-14T04:03:20.616Z,215092.00
2023-05-14T04:09:23.727Z,215066.00
2023-05-14T04:15:26.804Z,215204.00
2023-05-14T04:21:29.224Z,215441.00
2023-05-14T04:27:31.563Z,215805.00
2023-05-14T04:33:33.702Z,216254.00
2023-05-14T04:39:36.150Z,216218.00
2023-05-14T04:45:38.610Z,216260.00
2023-05-14T04:51:40.906Z,216155.00
2023-05-14T04:57:43.003Z,216196.00
2023-05-14T05:03:45.327Z,216543.00
2023-05-14T05:09:47.571Z,216901.00
2023-05-14T05:15:49.971Z,217036.00
2023-05-14T05:21:52.269Z,217291.00
2023-05-14T05:27:54.381Z,217518.00
2023-05-14T05:33:56.631Z,217694.00
2023-05-14T05:39:59.122Z,217951.00
2023-05-14T05:46:02.093Z,219811.00
2023-05-14T05:52:04.734Z,221500.00
2023-05-14T05:58:07.182Z,221817.00
2023-05-14T06:04:10.244Z,222583.00
2023-05-14T06:10:12.294Z,223598.00
2023-05-14T06:16:14.698Z,224166.00
2023-05-14T06:22:17.364Z,223717.00
2023-05-14T06:28:19.777Z,223240.00
2023-05-14T06:34:21.957Z,223693.00
2023-05-14T06:40:24.576Z,223709.00
2023-05-14T06:46:27.349Z,224376.00
2023-05-14T06:52:29.688Z,223956.00
2023-05-14T06:58:31.896Z,224435.00
2023-05-14T07:04:37.415Z,222891.00
2023-05-14T07:10:39.764Z,222373.00
2023-05-14T07:16:42.995Z,222396.00
2023-05-14T07:22:45.669Z,222167.00
2023-05-14T07:28:48.031Z,222537.00
2023-05-14T07:34:50.411Z,222074.00
2023-05-14T07:40:52.460Z,222921.00
2023-05-14T07:46:54.787Z,223932.00
2023-05-14T07:52:57.239Z,223456.00
2023-05-14T07:58:59.493Z,222791.00
2023-05-14T08:05:01.870Z,223256.00
2023-05-14T08:11:04.500Z,222850.00
2023-05-14T08:17:06.932Z,222589.00
2023-05-14T08:23:09.601Z,223010.00
2023-05-14T08:29:12.959Z,222640.00
2023-05-14T08:35:17.952Z,222464.00
2023-05-14T08:41:20.232Z,223056.00
2023-05-14T08:47:24.352Z,223143.00
2023-05-14T08:53:26.542Z,222899.00
2023-05-14T08:59:28.747Z,223547.00
2023-05-14T09:05:31.118Z,222813.00
2023-05-14T09:11:33.329Z,223108.00
2023-05-14T09:17:35.915Z,223331.00
2023-05-14T09:23:42.648Z,223078.00
2023-05-14T09:29:45.049Z,223256.00
2023-05-14T09:35:48.101Z,223256.00
2023-05-14T09:41:52.064Z,223278.00
2023-05-14T09:47:54.718Z,224075.00
2023-05-14T09:53:57.721Z,224938.00
2023-05-14T10:00:00.012Z,224046.00
2023-05-14T10:06:06.715Z,223792.00
2023-05-14T10:12:09.514Z,223986.00
2023-05-14T10:18:16.379Z,224457.00
2023-05-14T10:24:19.531Z,223561.00
2023-05-14T10:30:23.469Z,224317.00
2023-05-14T10:36:26.119Z,223940.00
2023-05-14T10:42:35.638Z,223018.00
2023-05-14T10:48:39.665Z,223382.00
2023-05-14T10:54:48.993Z,223204.00
2023-05-14T11:00:54.989Z,222767.00
2023-05-14T11:06:57.733Z,222691.00
2023-05-14T11:12:59.889Z,222899.00
2023-05-14T11:19:03.920Z,223026.00
2023-05-14T11:25:07.277Z,222848.00
2023-05-14T11:31:10.684Z,222791.00
2023-05-14T11:37:14.594Z,223150.00
2023-05-14T11:43:16.952Z,223337.00
2023-05-14T11:49:22.241Z,223620.00
2023-05-14T11:55:24.522Z,223948.00
2023-05-14T12:01:27.608Z,224016.00
2023-05-14T12:07:30.913Z,224239.00
2023-05-14T12:13:33.327Z,224239.00
2023-05-14T12:19:40.986Z,224317.00
2023-05-14T12:25:52.728Z,224263.00
2023-05-14T12:31:59.450Z,223212.00
2023-05-14T12:38:01.724Z,222834.00
2023-05-14T12:44:06.684Z,222951.00
2023-05-14T12:50:09.581Z,223471.00
2023-05-14T12:56:12.424Z,223792.00
2023-05-14T13:02:17.354Z,223434.00
2023-05-14T13:08:21.804Z,223204.00
2023-05-14T13:14:24.100Z,223226.00
2023-05-14T13:20:27.824Z,222848.00
2023-05-14T13:26:30.203Z,222367.00
2023-05-14T13:32:32.478Z,222308.00
2023-05-14T13:38:35.167Z,222351.00
2023-05-14T13:44:37.408Z,222302.00
2023-05-14T13:50:39.612Z,222107.00
2023-05-14T13:56:41.662Z,222175.00
2023-05-14T14:02:43.715Z,222242.00
2023-05-14T14:08:45.861Z,222115.00
2023-05-14T14:14:48.010Z,222074.00
2023-05-14T14:20:50.282Z,221917.00
2023-05-14T14:26:52.440Z,221765.00
2023-05-14T14:32:55.118Z,221728.00
2023-05-14T14:38:57.477Z,221801.00
2023-05-14T14:44:59.605Z,221565.00
2023-05-14T14:51:02.207Z,221565.00
2023-05-14T14:57:04.603Z,221433.00
2023-05-14T15:03:07.625Z,221221.00
2023-05-14T15:09:09.805Z,221207.00
2023-05-14T15:15:12.025Z,221245.00
2023-05-14T15:21:14.276Z,221185.00
2023-05-14T15:27:16.764Z,221142.00
2023-05-14T15:33:19.694Z,221068.00
2023-05-14T15:39:21.892Z,221052.00
2023-05-14T15:45:24.425Z,220988.00
2023-05-14T15:51:26.525Z,220876.00
2023-05-14T15:57:28.719Z,220797.00
2023-05-14T16:03:31.233Z,220734.00
2023-05-14T16:09:33.788Z,220689.00
2023-05-14T16:15:35.894Z,220607.00
2023-05-14T16:21:38.135Z,220565.00
2023-05-14T16:27:40.242Z,220471.00
2023-05-14T16:33:42.517Z,220376.00
2023-05-14T16:39:44.727Z,220294.00
2023-05-14T16:45:46.910Z,220204.00
2023-05-14T16:51:49.374Z,220166.00
2023-05-14T16:57:51.650Z,220063.00
2023-05-14T17:03:53.808Z,219970.00
2023-05-14T17:09:56.559Z,219877.00
2023-05-14T17:15:59.193Z,219752.00
2023-05-14T17:22:01.430Z,219630.00
2023-05-14T17:28:03.570Z,219534.00
2023-05-14T17:34:05.919Z,219422.00
2023-05-14T17:40:08.511Z,219357.00
2023-05-14T17:46:10.811Z,219313.00
2023-05-14T17:52:12.878Z,219263.00
2023-05-14T17:58:16.342Z,219199.00
2023-05-14T18:04:18.786Z,219133.00
2023-05-14T18:10:20.973Z,219091.00
2023-05-14T18:16:23.308Z,219024.00
2023-05-14T18:22:25.575Z,218961.00
2023-05-14T18:28:28.398Z,218912.00
2023-05-14T18:34:30.704Z,218854.00
2023-05-14T18:40:32.797Z,218810.00
2023-05-14T18:46:35.022Z,218704.00
2023-05-14T18:52:37.640Z,218638.00
2023-05-14T18:58:39.627Z,218595.00
2023-05-14T19:04:51.627Z,218531.00
2023-05-14T19:10:55.405Z,218472.00
2023-05-14T19:16:57.661Z,218373.00
2023-05-14T19:22:59.944Z,218288.00
2023-05-14T19:29:02.422Z,218222.00
2023-05-14T19:35:06.329Z,218166.00
2023-05-14T19:41:08.436Z,218088.00
2023-05-14T19:47:10.871Z,217979.00
2023-05-14T19:53:13.623Z,217859.00
2023-05-14T19:59:15.851Z,217730.00
2023-05-14T20:05:18.241Z,217633.00
2023-05-14T20:11:20.316Z,217532.00
2023-05-14T20:17:22.594Z,217461.00
2023-05-14T20:23:25.389Z,217392.00
2023-05-14T20:29:28.215Z,217327.00
2023-05-14T20:35:30.477Z,217271.00
2023-05-14T20:41:32.764Z,217219.00
2023-05-14T20:47:35.968Z,217176.00
2023-05-14T20:53:39.576Z,217129.00
2023-05-14T20:59:42.599Z,217057.00
2023-05-14T21:05:44.845Z,217014.00
2023-05-14T21:11:47.202Z,216972.00
2023-05-14T21:17:49.538Z,216928.00
2023-05-14T21:23:51.773Z,216868.00
2023-05-14T21:29:54.313Z,216840.00
2023-05-14T21:35:56.524Z,216816.00
2023-05-14T21:41:58.901Z,216802.00
2023-05-14T21:48:01.319Z,216782.00
2023-05-14T21:54:03.916Z,216747.00
2023-05-14T22:00:11.400Z,216711.00
2023-05-14T22:06:14.783Z,216675.00
2023-05-14T22:12:18.319Z,216647.00
2023-05-14T22:18:20.883Z,216607.00
2023-05-14T22:24:23.179Z,216571.00
2023-05-14T22:30:25.817Z,216507.00
2023-05-14T22:36:28.126Z,216485.00
2023-05-14T22:42:30.329Z,216450.00
2023-05-14T22:48:32.456Z,216420.00
2023-05-14T22:54:34.896Z,216359.00
2023-05-14T23:00:37.211Z,216312.00
2023-05-14T23:06:39.449Z,216268.00
2023-05-14T23:12:41.514Z,216240.00
2023-05-14T23:18:44.247Z,216240.00
2023-05-14T23:24:46.567Z,216260.00
2023-05-14T23:30:48.971Z,216240.00
2023-05-14T23:36:51.502Z,216246.00
2023-05-14T23:42:53.932Z,216268.00
2023-05-14T23:48:57.423Z,216288.00
2023-05-14T23:54:59.992Z,216304.00
